sensor_id;sensor_type;location;lat;lon;timestamp;P1;durP1;ratioP1;P2;durP2;ratioP2
13611;SDS011;6877;51.436;6.774;2024-03-23T00:53:37;15.60;;;5.43;;
13611;SDS011;6877;51.436;6.774;2024-03-23T00:56:03;16.25;;;4.88;;
13611;SDS011;6877;51.436;6.774;2024-03-23T00:58:29;12.88;;;4.28;;
13611;SDS011;6877;51.436;6.774;2024-03-23T01:00:54;17.83;;;5.38;;
13611;SDS011;6877;51.436;6.774;2024-03-23T01:03:20;23.85;;;10.00;;
13611;SDS011;6877;51.436;6.774;2024-03-23T01:05:46;11.90;;;3.70;;
13611;SDS011;6877;51.436;6.774;2024-03-23T01:08:11;16.20;;;4.00;;
13611;SDS011;6877;51.436;6.774;2024-03-23T01:10:37;11.65;;;4.55;;
13611;SDS011;6877;51.436;6.774;2024-03-23T01:13:02;20.40;;;4.43;;
13611;SDS011;6877;51.436;6.774;2024-03-23T01:15:28;16.08;;;4.03;;
13611;SDS011;6877;51.436;6.774;2024-03-23T01:17:54;11.35;;;4.13;;
13611;SDS011;6877;51.436;6.774;2024-03-23T01:20:19;11.15;;;4.03;;
13611;SDS011;6877;51.436;6.774;2024-03-23T01:22:45;11.32;;;3.85;;
13611;SDS011;6877;51.436;6.774;2024-03-23T01:25:11;8.82;;;2.40;;
13611;SDS011;6877;51.436;6.774;2024-03-23T01:27:36;15.95;;;3.70;;
13611;SDS011;6877;51.436;6.774;2024-03-23T01:30:02;9.45;;;2.65;;
13611;SDS011;6877;51.436;6.774;2024-03-23T01:32:28;15.20;;;3.40;;
13611;SDS011;6877;51.436;6.774;2024-03-23T01:34:53;8.68;;;3.10;;
13611;SDS011;6877;51.436;6.774;2024-03-23T01:37:19;8.25;;;3.22;;
13611;SDS011;6877;51.436;6.774;2024-03-23T01:39:44;9.00;;;2.95;;
13611;SDS011;6877;51.436;6.774;2024-03-23T01:42:10;8.85;;;2.95;;
13611;SDS011;6877;51.436;6.774;2024-03-23T01:44:36;4.55;;;2.83;;
13611;SDS011;6877;51.436;6.774;2024-03-23T01:47:01;5.35;;;2.67;;
13611;SDS011;6877;51.436;6.774;2024-03-23T01:49:27;6.47;;;2.70;;
13611;SDS011;6877;51.436;6.774;2024-03-23T01:51:53;7.50;;;2.33;;
13611;SDS011;6877;51.436;6.774;2024-03-23T01:54:18;6.18;;;2.88;;
13611;SDS011;6877;51.436;6.774;2024-03-23T01:56:44;4.75;;;2.58;;
13611;SDS011;6877;51.436;6.774;2024-03-23T01:59:10;5.50;;;2.97;;
13611;SDS011;6877;51.436;6.774;2024-03-23T02:01:36;11.07;;;2.95;;
13611;SDS011;6877;51.436;6.774;2024-03-23T02:04:02;5.63;;;2.53;;
13611;SDS011;6877;51.436;6.774;2024-03-23T02:06:27;10.13;;;3.35;;
13611;SDS011;6877;51.436;6.774;2024-03-23T02:08:53;6.60;;;3.35;;
13611;SDS011;6877;51.436;6.774;2024-03-23T02:11:20;6.53;;;2.40;;
13611;SDS011;6877;51.436;6.774;2024-03-23T02:13:45;7.65;;;3.13;;
13611;SDS011;6877;51.436;6.774;2024-03-23T02:16:11;13.25;;;3.45;;
13611;SDS011;6877;51.436;6.774;2024-03-23T02:18:38;8.52;;;3.13;;
13611;SDS011;6877;51.436;6.774;2024-03-23T02:21:04;8.07;;;3.20;;
13611;SDS011;6877;51.436;6.774;2024-03-23T02:23:30;14.60;;;5.10;;
13611;SDS011;6877;51.436;6.774;2024-03-23T02:25:55;9.77;;;3.42;;
13611;SDS011;6877;51.436;6.774;2024-03-23T02:28:21;8.90;;;2.85;;
13611;SDS011;6877;51.436;6.774;2024-03-23T02:30:50;7.68;;;3.28;;
13611;SDS011;6877;51.436;6.774;2024-03-23T02:33:16;3.80;;;2.22;;
13611;SDS011;6877;51.436;6.774;2024-03-23T02:35:45;14.90;;;3.17;;
13611;SDS011;6877;51.436;6.774;2024-03-23T02:38:12;8.05;;;2.80;;
13611;SDS011;6877;51.436;6.774;2024-03-23T02:40:37;5.85;;;3.15;;
13611;SDS011;6877;51.436;6.774;2024-03-23T02:43:03;9.25;;;2.42;;
13611;SDS011;6877;51.436;6.774;2024-03-23T02:45:30;9.70;;;3.30;;
13611;SDS011;6877;51.436;6.774;2024-03-23T02:47:55;5.68;;;2.70;;
13611;SDS011;6877;51.436;6.774;2024-03-23T02:50:21;13.57;;;3.58;;
13611;SDS011;6877;51.436;6.774;2024-03-23T02:52:47;11.38;;;3.58;;
13611;SDS011;6877;51.436;6.774;2024-03-23T02:55:13;5.65;;;3.05;;
13611;SDS011;6877;51.436;6.774;2024-03-23T02:57:39;15.82;;;3.95;;
13611;SDS011;6877;51.436;6.774;2024-03-23T03:00:05;5.07;;;3.22;;
13611;SDS011;6877;51.436;6.774;2024-03-23T03:02:32;8.88;;;3.08;;
13611;SDS011;6877;51.436;6.774;2024-03-23T03:04:58;12.25;;;3.88;;
13611;SDS011;6877;51.436;6.774;2024-03-23T03:07:24;12.20;;;3.20;;
13611;SDS011;6877;51.436;6.774;2024-03-23T03:09:50;10.50;;;3.08;;
13611;SDS011;6877;51.436;6.774;2024-03-23T03:12:15;8.05;;;2.88;;
13611;SDS011;6877;51.436;6.774;2024-03-23T03:14:41;16.38;;;4.85;;
13611;SDS011;6877;51.436;6.774;2024-03-23T03:17:06;8.95;;;2.72;;
13611;SDS011;6877;51.436;6.774;2024-03-23T03:19:32;10.80;;;3.35;;
13611;SDS011;6877;51.436;6.774;2024-03-23T03:21:58;5.40;;;3.22;;
13611;SDS011;6877;51.436;6.774;2024-03-23T03:24:23;7.32;;;2.75;;
13611;SDS011;6877;51.436;6.774;2024-03-23T03:26:49;6.03;;;2.90;;
13611;SDS011;6877;51.436;6.774;2024-03-23T03:29:15;5.78;;;2.28;;
13611;SDS011;6877;51.436;6.774;2024-03-23T03:31:41;10.70;;;4.55;;
13611;SDS011;6877;51.436;6.774;2024-03-23T03:34:07;10.65;;;3.15;;
13611;SDS011;6877;51.436;6.774;2024-03-23T03:36:33;5.82;;;2.92;;
13611;SDS011;6877;51.436;6.774;2024-03-23T03:38:58;10.77;;;3.53;;
13611;SDS011;6877;51.436;6.774;2024-03-23T03:41:24;8.65;;;3.67;;
13611;SDS011;6877;51.436;6.774;2024-03-23T03:43:50;12.00;;;2.72;;
13611;SDS011;6877;51.436;6.774;2024-03-23T03:46:16;10.20;;;3.35;;
13611;SDS011;6877;51.436;6.774;2024-03-23T03:48:41;8.68;;;3.63;;
13611;SDS011;6877;51.436;6.774;2024-03-23T03:51:07;9.27;;;3.15;;
13611;SDS011;6877;51.436;6.774;2024-03-23T03:53:32;12.20;;;3.00;;
13611;SDS011;6877;51.436;6.774;2024-03-23T03:56:01;10.70;;;3.55;;
13611;SDS011;6877;51.436;6.774;2024-03-23T03:58:27;5.75;;;3.22;;
13611;SDS011;6877;51.436;6.774;2024-03-23T04:00:53;11.07;;;3.35;;
13611;SDS011;6877;51.436;6.774;2024-03-23T04:03:19;9.15;;;3.75;;
13611;SDS011;6877;51.436;6.774;2024-03-23T04:05:50;9.65;;;3.90;;
13611;SDS011;6877;51.436;6.774;2024-03-23T04:08:16;11.82;;;3.85;;
13611;SDS011;6877;51.436;6.774;2024-03-23T04:10:42;16.02;;;4.15;;
13611;SDS011;6877;51.436;6.774;2024-03-23T04:13:07;5.47;;;3.67;;
13611;SDS011;6877;51.436;6.774;2024-03-23T04:15:33;13.77;;;5.28;;
13611;SDS011;6877;51.436;6.774;2024-03-23T04:17:59;4.95;;;3.72;;
13611;SDS011;6877;51.436;6.774;2024-03-23T04:20:24;12.38;;;4.53;;
13611;SDS011;6877;51.436;6.774;2024-03-23T04:22:50;13.05;;;4.30;;
13611;SDS011;6877;51.436;6.774;2024-03-23T04:25:15;11.13;;;3.65;;
13611;SDS011;6877;51.436;6.774;2024-03-23T04:27:41;9.13;;;3.80;;
13611;SDS011;6877;51.436;6.774;2024-03-23T04:30:07;15.65;;;4.05;;
13611;SDS011;6877;51.436;6.774;2024-03-23T04:32:36;12.02;;;4.20;;
13611;SDS011;6877;51.436;6.774;2024-03-23T04:35:02;10.93;;;3.88;;
13611;SDS011;6877;51.436;6.774;2024-03-23T04:37:32;11.07;;;4.43;;
13611;SDS011;6877;51.436;6.774;2024-03-23T04:39:59;16.40;;;4.88;;
13611;SDS011;6877;51.436;6.774;2024-03-23T04:42:29;15.65;;;4.85;;
13611;SDS011;6877;51.436;6.774;2024-03-23T04:44:54;13.45;;;4.90;;
13611;SDS011;6877;51.436;6.774;2024-03-23T04:47:20;17.30;;;6.95;;
13611;SDS011;6877;51.436;6.774;2024-03-23T04:49:46;18.25;;;5.82;;
13611;SDS011;6877;51.436;6.774;2024-03-23T04:52:11;13.77;;;5.80;;
13611;SDS011;6877;51.436;6.774;2024-03-23T04:54:37;20.17;;;6.85;;
13611;SDS011;6877;51.436;6.774;2024-03-23T04:57:05;24.02;;;7.50;;
13611;SDS011;6877;51.436;6.774;2024-03-23T04:59:31;17.00;;;6.75;;
13611;SDS011;6877;51.436;6.774;2024-03-23T05:01:57;17.65;;;6.38;;
13611;SDS011;6877;51.436;6.774;2024-03-23T05:04:23;28.98;;;6.30;;
13611;SDS011;6877;51.436;6.774;2024-03-23T05:06:48;15.55;;;6.38;;
13611;SDS011;6877;51.436;6.774;2024-03-23T05:09:14;19.63;;;5.63;;
13611;SDS011;6877;51.436;6.774;2024-03-23T05:11:40;14.45;;;5.43;;
13611;SDS011;6877;51.436;6.774;2024-03-23T05:14:09;20.65;;;6.68;;
13611;SDS011;6877;51.436;6.774;2024-03-23T05:16:36;24.05;;;7.18;;
13611;SDS011;6877;51.436;6.774;2024-03-23T05:19:02;30.38;;;10.50;;
13611;SDS011;6877;51.436;6.774;2024-03-23T05:21:27;24.23;;;11.48;;
13611;SDS011;6877;51.436;6.774;2024-03-23T05:23:56;36.58;;;12.68;;
13611;SDS011;6877;51.436;6.774;2024-03-23T05:26:22;33.13;;;10.05;;
13611;SDS011;6877;51.436;6.774;2024-03-23T05:28:48;29.75;;;10.52;;
13611;SDS011;6877;51.436;6.774;2024-03-23T05:31:27;37.22;;;10.82;;
13611;SDS011;6877;51.436;6.774;2024-03-23T05:33:53;40.80;;;11.77;;
13611;SDS011;6877;51.436;6.774;2024-03-23T05:36:19;30.08;;;11.50;;
13611;SDS011;6877;51.436;6.774;2024-03-23T05:38:45;34.35;;;11.35;;
13611;SDS011;6877;51.436;6.774;2024-03-23T05:41:11;37.10;;;12.02;;
13611;SDS011;6877;51.436;6.774;2024-03-23T05:43:37;24.85;;;11.55;;
13611;SDS011;6877;51.436;6.774;2024-03-23T05:46:03;31.08;;;12.70;;
13611;SDS011;6877;51.436;6.774;2024-03-23T05:48:30;36.15;;;12.60;;
13611;SDS011;6877;51.436;6.774;2024-03-23T05:50:56;33.28;;;12.10;;
13611;SDS011;6877;51.436;6.774;2024-03-23T05:53:23;42.17;;;18.02;;
13611;SDS011;6877;51.436;6.774;2024-03-23T05:55:49;39.17;;;14.15;;
13611;SDS011;6877;51.436;6.774;2024-03-23T05:58:16;36.63;;;14.38;;
13611;SDS011;6877;51.436;6.774;2024-03-23T06:00:42;57.63;;;19.60;;
13611;SDS011;6877;51.436;6.774;2024-03-23T06:03:08;47.03;;;19.38;;
13611;SDS011;6877;51.436;6.774;2024-03-23T06:05:35;49.15;;;16.77;;
13611;SDS011;6877;51.436;6.774;2024-03-23T06:08:01;49.45;;;18.05;;
13611;SDS011;6877;51.436;6.774;2024-03-23T06:10:27;50.38;;;16.85;;
13611;SDS011;6877;51.436;6.774;2024-03-23T06:12:53;53.25;;;16.30;;
13611;SDS011;6877;51.436;6.774;2024-03-23T06:15:21;52.78;;;17.88;;
13611;SDS011;6877;51.436;6.774;2024-03-23T06:17:47;39.92;;;14.00;;
13611;SDS011;6877;51.436;6.774;2024-03-23T06:20:13;38.15;;;12.65;;
13611;SDS011;6877;51.436;6.774;2024-03-23T06:22:39;32.63;;;11.55;;
13611;SDS011;6877;51.436;6.774;2024-03-23T06:25:05;40.30;;;12.88;;
13611;SDS011;6877;51.436;6.774;2024-03-23T06:27:32;43.92;;;12.57;;
13611;SDS011;6877;51.436;6.774;2024-03-23T06:29:58;35.33;;;11.00;;
13611;SDS011;6877;51.436;6.774;2024-03-23T06:32:24;28.15;;;10.38;;
13611;SDS011;6877;51.436;6.774;2024-03-23T06:34:49;27.48;;;10.30;;
13611;SDS011;6877;51.436;6.774;2024-03-23T06:37:15;24.50;;;8.05;;
13611;SDS011;6877;51.436;6.774;2024-03-23T06:39:40;27.75;;;10.05;;
13611;SDS011;6877;51.436;6.774;2024-03-23T06:42:06;26.73;;;8.80;;
13611;SDS011;6877;51.436;6.774;2024-03-23T06:44:33;28.88;;;10.88;;
13611;SDS011;6877;51.436;6.774;2024-03-23T06:46:59;21.25;;;11.07;;
13611;SDS011;6877;51.436;6.774;2024-03-23T06:49:25;25.67;;;9.48;;
13611;SDS011;6877;51.436;6.774;2024-03-23T06:51:51;24.02;;;8.35;;
13611;SDS011;6877;51.436;6.774;2024-03-23T06:54:17;21.35;;;7.93;;
13611;SDS011;6877;51.436;6.774;2024-03-23T06:56:44;22.58;;;8.95;;
13611;SDS011;6877;51.436;6.774;2024-03-23T06:59:10;24.02;;;9.85;;
13611;SDS011;6877;51.436;6.774;2024-03-23T07:01:36;21.85;;;9.20;;
13611;SDS011;6877;51.436;6.774;2024-03-23T07:04:01;26.40;;;9.70;;
13611;SDS011;6877;51.436;6.774;2024-03-23T07:06:27;21.83;;;8.98;;
13611;SDS011;6877;51.436;6.774;2024-03-23T07:08:53;17.25;;;8.27;;
13611;SDS011;6877;51.436;6.774;2024-03-23T07:11:19;25.48;;;9.80;;
13611;SDS011;6877;51.436;6.774;2024-03-23T07:13:45;20.25;;;11.20;;
13611;SDS011;6877;51.436;6.774;2024-03-23T07:16:11;14.75;;;7.32;;
13611;SDS011;6877;51.436;6.774;2024-03-23T07:18:38;15.68;;;7.72;;
13611;SDS011;6877;51.436;6.774;2024-03-23T07:21:04;15.07;;;7.57;;
13611;SDS011;6877;51.436;6.774;2024-03-23T07:23:32;17.80;;;6.85;;
13611;SDS011;6877;51.436;6.774;2024-03-23T07:25:58;15.30;;;8.07;;
13611;SDS011;6877;51.436;6.774;2024-03-23T07:28:24;16.00;;;8.32;;
13611;SDS011;6877;51.436;6.774;2024-03-23T07:31:05;17.83;;;7.50;;
13611;SDS011;6877;51.436;6.774;2024-03-23T07:33:36;16.63;;;5.68;;
13611;SDS011;6877;51.436;6.774;2024-03-23T07:36:07;14.65;;;7.22;;
13611;SDS011;6877;51.436;6.774;2024-03-23T07:38:32;17.20;;;7.07;;
13611;SDS011;6877;51.436;6.774;2024-03-23T07:41:05;18.10;;;7.07;;
13611;SDS011;6877;51.436;6.774;2024-03-23T07:43:32;14.80;;;5.78;;
13611;SDS011;6877;51.436;6.774;2024-03-23T07:45:59;13.93;;;6.05;;
13611;SDS011;6877;51.436;6.774;2024-03-23T07:48:25;14.63;;;5.43;;
13611;SDS011;6877;51.436;6.774;2024-03-23T07:53:22;13.00;;;5.43;;
13611;SDS011;6877;51.436;6.774;2024-03-23T07:55:58;14.70;;;6.32;;
13611;SDS011;6877;51.436;6.774;2024-03-23T07:58:26;15.02;;;5.70;;
13611;SDS011;6877;51.436;6.774;2024-03-23T08:00:55;11.95;;;5.07;;
13611;SDS011;6877;51.436;6.774;2024-03-23T08:03:21;11.13;;;5.65;;
13611;SDS011;6877;51.436;6.774;2024-03-23T08:05:48;23.38;;;6.70;;
13611;SDS011;6877;51.436;6.774;2024-03-23T08:08:14;10.00;;;4.03;;
13611;SDS011;6877;51.436;6.774;2024-03-23T08:10:50;20.00;;;5.15;;
13611;SDS011;6877;51.436;6.774;2024-03-23T08:13:16;14.57;;;5.10;;
13611;SDS011;6877;51.436;6.774;2024-03-23T08:15:42;15.10;;;4.40;;
13611;SDS011;6877;51.436;6.774;2024-03-23T08:18:08;11.32;;;4.18;;
13611;SDS011;6877;51.436;6.774;2024-03-23T08:20:34;6.78;;;3.10;;
13611;SDS011;6877;51.436;6.774;2024-03-23T08:23:00;11.40;;;4.43;;
13611;SDS011;6877;51.436;6.774;2024-03-23T08:25:25;5.45;;;3.10;;
13611;SDS011;6877;51.436;6.774;2024-03-23T08:27:51;15.32;;;3.45;;
13611;SDS011;6877;51.436;6.774;2024-03-23T08:30:17;8.52;;;4.38;;
13611;SDS011;6877;51.436;6.774;2024-03-23T08:32:43;11.73;;;4.10;;
13611;SDS011;6877;51.436;6.774;2024-03-23T08:35:09;7.90;;;3.88;;
13611;SDS011;6877;51.436;6.774;2024-03-23T08:37:35;8.43;;;4.05;;
13611;SDS011;6877;51.436;6.774;2024-03-23T08:40:00;8.32;;;3.40;;
13611;SDS011;6877;51.436;6.774;2024-03-23T08:42:26;5.75;;;3.20;;
13611;SDS011;6877;51.436;6.774;2024-03-23T08:44:51;9.55;;;3.60;;
13611;SDS011;6877;51.436;6.774;2024-03-23T08:47:17;10.85;;;2.97;;
13611;SDS011;6877;51.436;6.774;2024-03-23T08:49:44;8.93;;;2.95;;
13611;SDS011;6877;51.436;6.774;2024-03-23T08:52:09;9.85;;;3.75;;
13611;SDS011;6877;51.436;6.774;2024-03-23T08:54:35;9.80;;;3.97;;
13611;SDS011;6877;51.436;6.774;2024-03-23T08:57:01;8.57;;;3.95;;
13611;SDS011;6877;51.436;6.774;2024-03-23T08:59:26;18.30;;;4.45;;
13611;SDS011;6877;51.436;6.774;2024-03-23T09:01:52;8.35;;;4.03;;
13611;SDS011;6877;51.436;6.774;2024-03-23T09:04:18;10.55;;;3.53;;
13611;SDS011;6877;51.436;6.774;2024-03-23T09:06:44;15.93;;;4.28;;
13611;SDS011;6877;51.436;6.774;2024-03-23T09:09:10;6.93;;;3.00;;
13611;SDS011;6877;51.436;6.774;2024-03-23T09:11:36;8.73;;;3.90;;
13611;SDS011;6877;51.436;6.774;2024-03-23T09:14:02;6.63;;;3.97;;
13611;SDS011;6877;51.436;6.774;2024-03-23T09:16:29;8.57;;;3.10;;
13611;SDS011;6877;51.436;6.774;2024-03-23T09:18:54;9.88;;;3.47;;
13611;SDS011;6877;51.436;6.774;2024-03-23T09:21:20;9.63;;;3.58;;
13611;SDS011;6877;51.436;6.774;2024-03-23T09:23:45;9.30;;;3.28;;
13611;SDS011;6877;51.436;6.774;2024-03-23T09:26:12;10.07;;;4.00;;
13611;SDS011;6877;51.436;6.774;2024-03-23T09:28:37;6.93;;;3.35;;
13611;SDS011;6877;51.436;6.774;2024-03-23T09:31:07;9.93;;;3.60;;
13611;SDS011;6877;51.436;6.774;2024-03-23T09:33:36;10.18;;;3.92;;
13611;SDS011;6877;51.436;6.774;2024-03-23T09:36:03;10.65;;;3.60;;
13611;SDS011;6877;51.436;6.774;2024-03-23T09:38:29;9.70;;;3.92;;
13611;SDS011;6877;51.436;6.774;2024-03-23T09:40:55;7.97;;;3.55;;
13611;SDS011;6877;51.436;6.774;2024-03-23T09:43:21;9.13;;;3.30;;
13611;SDS011;6877;51.436;6.774;2024-03-23T09:45:47;6.78;;;2.45;;
13611;SDS011;6877;51.436;6.774;2024-03-23T09:48:14;9.60;;;3.70;;
13611;SDS011;6877;51.436;6.774;2024-03-23T09:50:41;6.15;;;2.20;;
13611;SDS011;6877;51.436;6.774;2024-03-23T09:53:08;6.05;;;2.55;;
13611;SDS011;6877;51.436;6.774;2024-03-23T09:55:36;11.82;;;3.47;;
13611;SDS011;6877;51.436;6.774;2024-03-23T09:58:03;8.88;;;3.47;;
13611;SDS011;6877;51.436;6.774;2024-03-23T10:00:34;11.63;;;2.25;;
13611;SDS011;6877;51.436;6.774;2024-03-23T10:03:00;6.90;;;2.90;;
13611;SDS011;6877;51.436;6.774;2024-03-23T10:05:27;5.95;;;1.98;;
13611;SDS011;6877;51.436;6.774;2024-03-23T10:07:54;5.32;;;2.55;;
13611;SDS011;6877;51.436;6.774;2024-03-23T10:10:20;4.85;;;1.83;;
13611;SDS011;6877;51.436;6.774;2024-03-23T10:12:49;4.90;;;1.70;;
13611;SDS011;6877;51.436;6.774;2024-03-23T10:15:27;5.03;;;2.53;;
13611;SDS011;6877;51.436;6.774;2024-03-23T10:17:52;7.85;;;2.47;;
13611;SDS011;6877;51.436;6.774;2024-03-23T10:20:19;9.07;;;1.95;;
13611;SDS011;6877;51.436;6.774;2024-03-23T10:22:48;6.45;;;3.15;;
13611;SDS011;6877;51.436;6.774;2024-03-23T10:25:17;8.80;;;2.30;;
13611;SDS011;6877;51.436;6.774;2024-03-23T10:27:43;4.57;;;2.33;;
13611;SDS011;6877;51.436;6.774;2024-03-23T10:30:09;6.07;;;2.72;;
13611;SDS011;6877;51.436;6.774;2024-03-23T10:32:37;8.48;;;3.20;;
13611;SDS011;6877;51.436;6.774;2024-03-23T10:35:24;11.80;;;3.33;;
13611;SDS011;6877;51.436;6.774;2024-03-23T10:37:49;4.50;;;1.48;;
13611;SDS011;6877;51.436;6.774;2024-03-23T10:40:17;1.95;;;1.05;;
13611;SDS011;6877;51.436;6.774;2024-03-23T10:42:46;2.85;;;1.48;;
13611;SDS011;6877;51.436;6.774;2024-03-23T10:45:12;2.50;;;1.35;;
13611;SDS011;6877;51.436;6.774;2024-03-23T10:47:37;1.70;;;1.60;;
13611;SDS011;6877;51.436;6.774;2024-03-23T10:50:03;4.10;;;2.22;;
13611;SDS011;6877;51.436;6.774;2024-03-23T10:52:31;4.50;;;1.60;;
13611;SDS011;6877;51.436;6.774;2024-03-23T10:55:04;5.22;;;2.25;;
13611;SDS011;6877;51.436;6.774;2024-03-23T10:57:34;2.50;;;1.60;;
13611;SDS011;6877;51.436;6.774;2024-03-23T11:00:08;4.93;;;1.88;;
13611;SDS011;6877;51.436;6.774;2024-03-23T11:02:35;10.50;;;2.33;;
13611;SDS011;6877;51.436;6.774;2024-03-23T11:05:01;4.78;;;1.90;;
13611;SDS011;6877;51.436;6.774;2024-03-23T11:07:29;5.35;;;2.30;;
13611;SDS011;6877;51.436;6.774;2024-03-23T11:09:57;9.07;;;2.35;;
13611;SDS011;6877;51.436;6.774;2024-03-23T11:17:31;2.28;;;2.08;;
13611;SDS011;6877;51.436;6.774;2024-03-23T11:25:21;5.47;;;2.88;;
13611;SDS011;6877;51.436;6.774;2024-03-23T11:27:51;7.90;;;3.10;;
13611;SDS011;6877;51.436;6.774;2024-03-23T11:30:22;10.38;;;3.63;;
13611;SDS011;6877;51.436;6.774;2024-03-23T11:32:49;4.65;;;2.88;;
13611;SDS011;6877;51.436;6.774;2024-03-23T11:35:34;6.90;;;2.88;;
13611;SDS011;6877;51.436;6.774;2024-03-23T11:40:30;7.80;;;2.70;;
13611;SDS011;6877;51.436;6.774;2024-03-23T11:42:58;6.38;;;3.42;;
13611;SDS011;6877;51.436;6.774;2024-03-23T11:45:28;7.97;;;3.63;;
13611;SDS011;6877;51.436;6.774;2024-03-23T11:48:05;4.07;;;2.22;;
13611;SDS011;6877;51.436;6.774;2024-03-23T11:50:32;4.28;;;2.97;;
13611;SDS011;6877;51.436;6.774;2024-03-23T11:55:49;7.90;;;2.35;;
13611;SDS011;6877;51.436;6.774;2024-03-23T11:58:17;9.27;;;2.40;;
13611;SDS011;6877;51.436;6.774;2024-03-23T12:00:55;6.95;;;2.80;;
13611;SDS011;6877;51.436;6.774;2024-03-23T12:03:22;10.82;;;3.13;;
13611;SDS011;6877;51.436;6.774;2024-03-23T12:05:54;8.43;;;3.00;;
13611;SDS011;6877;51.436;6.774;2024-03-23T12:13:30;9.55;;;2.25;;
13611;SDS011;6877;51.436;6.774;2024-03-23T12:18:54;3.35;;;2.70;;
13611;SDS011;6877;51.436;6.774;2024-03-23T12:21:36;6.20;;;2.60;;
13611;SDS011;6877;51.436;6.774;2024-03-23T12:24:10;3.17;;;2.60;;
13611;SDS011;6877;51.436;6.774;2024-03-23T12:26:36;3.83;;;2.75;;
13611;SDS011;6877;51.436;6.774;2024-03-23T12:29:05;3.60;;;2.58;;
13611;SDS011;6877;51.436;6.774;2024-03-23T12:31:31;7.53;;;2.63;;
13611;SDS011;6877;51.436;6.774;2024-03-23T12:33:56;6.10;;;3.60;;
13611;SDS011;6877;51.436;6.774;2024-03-23T12:36:22;9.82;;;3.42;;
13611;SDS011;6877;51.436;6.774;2024-03-23T12:38:48;10.80;;;3.53;;
13611;SDS011;6877;51.436;6.774;2024-03-23T12:41:13;9.07;;;3.75;;
13611;SDS011;6877;51.436;6.774;2024-03-23T12:43:39;14.85;;;4.28;;
13611;SDS011;6877;51.436;6.774;2024-03-23T12:46:05;11.65;;;4.50;;
13611;SDS011;6877;51.436;6.774;2024-03-23T12:48:30;7.60;;;3.72;;
13611;SDS011;6877;51.436;6.774;2024-03-23T12:50:56;10.93;;;3.20;;
13611;SDS011;6877;51.436;6.774;2024-03-23T12:53:31;4.20;;;2.17;;
13611;SDS011;6877;51.436;6.774;2024-03-23T12:55:57;3.50;;;2.25;;
13611;SDS011;6877;51.436;6.774;2024-03-23T12:58:23;2.53;;;1.73;;
13611;SDS011;6877;51.436;6.774;2024-03-23T13:00:49;2.88;;;1.80;;
13611;SDS011;6877;51.436;6.774;2024-03-23T13:03:14;5.32;;;2.75;;
13611;SDS011;6877;51.436;6.774;2024-03-23T13:05:43;7.75;;;3.70;;
13611;SDS011;6877;51.436;6.774;2024-03-23T13:08:08;15.60;;;4.38;;
13611;SDS011;6877;51.436;6.774;2024-03-23T13:10:34;9.05;;;4.25;;
13611;SDS011;6877;51.436;6.774;2024-03-23T13:13:00;6.70;;;3.55;;
13611;SDS011;6877;51.436;6.774;2024-03-23T13:15:25;12.85;;;3.75;;
13611;SDS011;6877;51.436;6.774;2024-03-23T13:17:51;9.45;;;3.13;;
13611;SDS011;6877;51.436;6.774;2024-03-23T13:20:19;7.78;;;2.90;;
13611;SDS011;6877;51.436;6.774;2024-03-23T13:22:45;8.93;;;2.85;;
13611;SDS011;6877;51.436;6.774;2024-03-23T13:25:12;7.38;;;2.75;;
13611;SDS011;6877;51.436;6.774;2024-03-23T13:27:38;11.13;;;3.60;;
13611;SDS011;6877;51.436;6.774;2024-03-23T13:30:04;9.93;;;4.03;;
13611;SDS011;6877;51.436;6.774;2024-03-23T13:32:35;7.40;;;3.35;;
13611;SDS011;6877;51.436;6.774;2024-03-23T13:35:01;6.03;;;4.05;;
13611;SDS011;6877;51.436;6.774;2024-03-23T13:37:32;3.28;;;2.10;;
13611;SDS011;6877;51.436;6.774;2024-03-23T13:39:59;1.85;;;1.55;;
13611;SDS011;6877;51.436;6.774;2024-03-23T13:42:24;1.85;;;1.60;;
13611;SDS011;6877;51.436;6.774;2024-03-23T13:44:51;2.30;;;1.48;;
13611;SDS011;6877;51.436;6.774;2024-03-23T13:47:16;3.13;;;2.00;;
13611;SDS011;6877;51.436;6.774;2024-03-23T13:49:42;2.80;;;1.38;;
13611;SDS011;6877;51.436;6.774;2024-03-23T13:52:08;3.88;;;1.58;;
13611;SDS011;6877;51.436;6.774;2024-03-23T13:54:33;2.00;;;1.27;;
13611;SDS011;6877;51.436;6.774;2024-03-23T13:56:59;1.30;;;1.20;;
13611;SDS011;6877;51.436;6.774;2024-03-23T13:59:24;4.15;;;1.38;;
13611;SDS011;6877;51.436;6.774;2024-03-23T14:01:50;1.77;;;1.40;;
13611;SDS011;6877;51.436;6.774;2024-03-23T14:04:16;2.10;;;1.90;;
13611;SDS011;6877;51.436;6.774;2024-03-23T14:06:42;3.90;;;1.77;;
13611;SDS011;6877;51.436;6.774;2024-03-23T14:09:11;3.95;;;1.42;;
13611;SDS011;6877;51.436;6.774;2024-03-23T14:11:37;3.28;;;1.77;;
13611;SDS011;6877;51.436;6.774;2024-03-23T14:14:03;5.97;;;1.95;;
13611;SDS011;6877;51.436;6.774;2024-03-23T14:16:29;1.50;;;1.40;;
13611;SDS011;6877;51.436;6.774;2024-03-23T14:18:55;3.03;;;1.75;;
13611;SDS011;6877;51.436;6.774;2024-03-23T14:21:21;3.33;;;1.60;;
13611;SDS011;6877;51.436;6.774;2024-03-23T14:23:47;7.20;;;1.92;;
13611;SDS011;6877;51.436;6.774;2024-03-23T14:26:12;2.20;;;1.73;;
13611;SDS011;6877;51.436;6.774;2024-03-23T14:28:38;6.60;;;2.10;;
13611;SDS011;6877;51.436;6.774;2024-03-23T14:31:03;8.40;;;2.33;;
13611;SDS011;6877;51.436;6.774;2024-03-23T14:33:36;4.00;;;1.48;;
13611;SDS011;6877;51.436;6.774;2024-03-23T14:36:11;5.63;;;1.85;;
13611;SDS011;6877;51.436;6.774;2024-03-23T14:38:37;8.80;;;2.22;;
13611;SDS011;6877;51.436;6.774;2024-03-23T14:41:03;4.15;;;1.60;;
13611;SDS011;6877;51.436;6.774;2024-03-23T14:43:29;2.05;;;1.60;;
13611;SDS011;6877;51.436;6.774;2024-03-23T14:46:16;4.57;;;1.58;;
13611;SDS011;6877;51.436;6.774;2024-03-23T14:48:44;2.13;;;1.60;;
13611;SDS011;6877;51.436;6.774;2024-03-23T14:51:11;3.80;;;1.75;;
13611;SDS011;6877;51.436;6.774;2024-03-23T14:53:39;2.95;;;1.80;;
13611;SDS011;6877;51.436;6.774;2024-03-23T14:56:06;8.60;;;1.70;;
13611;SDS011;6877;51.436;6.774;2024-03-23T14:58:33;2.35;;;1.63;;
13611;SDS011;6877;51.436;6.774;2024-03-23T15:01:01;7.70;;;3.00;;
13611;SDS011;6877;51.436;6.774;2024-03-23T15:03:29;5.57;;;3.00;;
13611;SDS011;6877;51.436;6.774;2024-03-23T15:05:56;2.17;;;1.63;;
13611;SDS011;6877;51.436;6.774;2024-03-23T15:08:22;3.72;;;2.10;;
13611;SDS011;6877;51.436;6.774;2024-03-23T15:10:48;5.00;;;2.53;;
13611;SDS011;6877;51.436;6.774;2024-03-23T15:13:14;4.03;;;1.73;;
13611;SDS011;6877;51.436;6.774;2024-03-23T15:15:40;3.63;;;2.28;;
13611;SDS011;6877;51.436;6.774;2024-03-23T15:18:10;5.32;;;2.95;;
13611;SDS011;6877;51.436;6.774;2024-03-23T15:20:38;8.55;;;2.92;;
13611;SDS011;6877;51.436;6.774;2024-03-23T15:23:04;2.65;;;2.30;;
13611;SDS011;6877;51.436;6.774;2024-03-23T15:25:30;8.05;;;3.53;;
13611;SDS011;6877;51.436;6.774;2024-03-23T15:27:57;4.38;;;2.45;;
13611;SDS011;6877;51.436;6.774;2024-03-23T15:30:24;9.98;;;2.47;;
13611;SDS011;6877;51.436;6.774;2024-03-23T15:32:49;8.07;;;2.40;;
13611;SDS011;6877;51.436;6.774;2024-03-23T15:35:15;6.63;;;2.40;;
13611;SDS011;6877;51.436;6.774;2024-03-23T15:37:41;5.10;;;2.78;;
13611;SDS011;6877;51.436;6.774;2024-03-23T15:40:06;7.53;;;2.88;;
13611;SDS011;6877;51.436;6.774;2024-03-23T15:42:35;7.80;;;3.40;;
13611;SDS011;6877;51.436;6.774;2024-03-23T15:45:00;11.57;;;4.10;;
13611;SDS011;6877;51.436;6.774;2024-03-23T15:47:28;4.35;;;2.67;;
13611;SDS011;6877;51.436;6.774;2024-03-23T15:49:54;8.93;;;2.60;;
13611;SDS011;6877;51.436;6.774;2024-03-23T15:52:21;2.60;;;2.22;;
13611;SDS011;6877;51.436;6.774;2024-03-23T15:54:46;4.55;;;2.20;;
13611;SDS011;6877;51.436;6.774;2024-03-23T15:57:12;5.50;;;2.30;;
13611;SDS011;6877;51.436;6.774;2024-03-23T15:59:40;4.22;;;2.30;;
13611;SDS011;6877;51.436;6.774;2024-03-23T16:02:06;6.28;;;1.73;;
13611;SDS011;6877;51.436;6.774;2024-03-23T16:04:32;10.80;;;4.28;;
13611;SDS011;6877;51.436;6.774;2024-03-23T16:06:57;8.68;;;3.53;;
13611;SDS011;6877;51.436;6.774;2024-03-23T16:09:23;3.88;;;2.17;;